Time;durP1;ratioP1;P1;durP2;ratioP2;P2;SDS_P1;SDS_P2;PMS_P1;PMS_P2;Temp;Humidity;BMP_temperature;BMP_pressure;BME280_temperature;BME280_humidity;BME280_pressure;Samples;Min_cycle;Max_cycle;Signal;HPM_P1;HPM_P2
2023/08/16 00:01:29;;;;;;;8.90;8.10;;;;;;;18.83;100.00;100383.56;5013274;28;20222;-67
2023/08/16 00:03:54;;;;;;;10.13;7.93;;;;;;;18.83;100.00;100384.38;5015209;28;20192;-66
2023/08/16 00:06:19;;;;;;;9.33;8.20;;;;;;;18.82;100.00;100379.31;5011666;28;20187;-66
2023/08/16 00:08:45;;;;;;;9.67;8.87;;;;;;;18.82;100.00;100376.69;5011885;28;20187;-67
2023/08/16 00:11:10;;;;;;;9.03;7.87;;;;;;;18.84;100.00;100377.38;5010902;28;20234;-67
2023/08/16 00:13:36;;;;;;;9.77;8.63;;;;;;;18.75;100.00;100371.16;5018516;28;20191;-66
2023/08/16 00:16:02;;;;;;;11.87;8.60;;;;;;;18.62;100.00;100376.59;5011210;28;20207;-65
2023/08/16 00:18:28;;;;;;;9.30;8.33;;;;;;;18.55;100.00;100367.66;5014202;28;20281;-66
2023/08/16 00:20:54;;;;;;;8.80;7.97;;;;;;;18.45;100.00;100375.41;5003959;28;20225;-66
2023/08/16 00:23:19;;;;;;;13.60;9.80;;;;;;;18.35;100.00;100374.53;5011322;28;20261;-66
2023/08/16 00:25:44;;;;;;;12.00;9.43;;;;;;;18.47;100.00;100377.88;5018368;28;20187;-66
2023/08/16 00:28:09;;;;;;;14.63;8.40;;;;;;;18.55;100.00;100375.47;5007632;28;20214;-66
2023/08/16 00:30:35;;;;;;;8.87;7.93;;;;;;;18.47;100.00;100370.91;5006296;28;20260;-66
2023/08/16 00:33:00;;;;;;;14.00;8.03;;;;;;;18.54;100.00;100364.22;5009872;28;20188;-67
2023/08/16 00:35:25;;;;;;;8.63;7.83;;;;;;;18.56;100.00;100356.28;5011406;28;20228;-67
2023/08/16 00:37:52;;;;;;;9.33;8.33;;;;;;;18.55;100.00;100359.81;5011240;28;20567;-66
2023/08/16 00:40:17;;;;;;;10.13;9.10;;;;;;;18.57;100.00;100363.13;5003845;28;20634;-66
2023/08/16 00:42:43;;;;;;;14.17;11.87;;;;;;;18.52;100.00;100358.31;5011734;28;20272;-67
2023/08/16 00:45:09;;;;;;;11.90;10.80;;;;;;;18.46;100.00;100358.00;5014294;28;20552;-67
2023/08/16 00:47:34;;;;;;;12.83;11.37;;;;;;;18.48;100.00;100356.94;5015437;28;20585;-66
2023/08/16 00:50:00;;;;;;;13.13;10.87;;;;;;;18.54;100.00;100350.34;5015594;28;20210;-66
2023/08/16 00:52:25;;;;;;;13.03;11.73;;;;;;;18.46;100.00;100347.59;5020532;28;20226;-66
2023/08/16 00:54:51;;;;;;;12.53;9.77;;;;;;;18.50;100.00;100343.75;5015136;28;20630;-66
2023/08/16 00:57:16;;;;;;;12.33;10.30;;;;;;;18.35;100.00;100343.28;5015552;28;20210;-66
2023/08/16 00:59:42;;;;;;;13.87;10.40;;;;;;;18.40;100.00;100343.72;5015796;28;20177;-66
2023/08/16 01:02:08;;;;;;;20.93;9.83;;;;;;;18.39;100.00;100344.66;5019947;28;20217;-67
2023/08/16 01:04:33;;;;;;;10.50;9.40;;;;;;;18.38;100.00;100341.25;5014519;28;20174;-67
2023/08/16 01:07:00;;;;;;;10.40;9.50;;;;;;;18.35;100.00;100336.28;5014814;28;20179;-67
2023/08/16 01:09:26;;;;;;;9.30;8.40;;;;;;;18.35;100.00;100338.88;5015364;28;20254;-67
2023/08/16 01:12:05;;;;;;;13.20;9.33;;;;;;;18.30;100.00;100340.22;5017982;28;20324;-67
2023/08/16 01:14:49;;;;;;;12.17;9.17;;;;;;;18.18;100.00;100332.50;5014910;28;20194;-66
2023/08/16 01:17:16;;;;;;;12.60;9.80;;;;;;;18.19;100.00;100338.50;5015057;28;20226;-66
2023/08/16 01:19:42;;;;;;;12.83;9.70;;;;;;;18.19;100.00;100341.94;5014943;28;20669;-67
2023/08/16 01:22:41;;;;;;;12.50;10.97;;;;;;;18.09;100.00;100341.06;5019511;28;20221;-66
2023/08/16 01:25:12;;;;;;;11.07;9.03;;;;;;;18.18;100.00;100335.09;5013126;28;20191;-67
2023/08/16 01:27:38;;;;;;;23.93;11.90;;;;;;;18.26;100.00;100346.63;5015219;28;20183;-66
2023/08/16 01:30:04;;;;;;;69.00;15.03;;;;;;;18.23;100.00;100348.56;5008591;28;20171;-66
2023/08/16 01:32:31;;;;;;;39.90;13.07;;;;;;;18.28;100.00;100353.34;5029353;28;20596;-66
2023/08/16 01:34:57;;;;;;;57.17;15.40;;;;;;;18.31;100.00;100354.91;5013129;28;20190;-66
2023/08/16 01:37:22;;;;;;;96.23;17.50;;;;;;;18.34;100.00;100360.66;5014747;28;20206;-66
2023/08/16 01:39:51;;;;;;;127.90;20.67;;;;;;;18.25;100.00;100355.41;5014551;28;20186;-66
2023/08/16 01:42:17;;;;;;;115.50;18.97;;;;;;;18.37;100.00;100355.22;5019046;28;20253;-66
2023/08/16 01:44:48;;;;;;;111.07;19.77;;;;;;;18.47;100.00;100363.09;5011960;28;20199;-66
2023/08/16 01:47:15;;;;;;;155.27;22.07;;;;;;;18.56;100.00;100356.28;5014855;28;20296;-66
2023/08/16 01:49:41;;;;;;;87.77;19.93;;;;;;;18.68;100.00;100370.03;5014306;28;20201;-65
2023/08/16 01:52:07;;;;;;;77.97;20.87;;;;;;;18.79;100.00;100367.38;5019785;28;20238;-67
2023/08/16 01:54:32;;;;;;;95.90;19.27;;;;;;;18.62;100.00;100368.78;5013895;28;20589;-66
2023/08/16 01:56:58;;;;;;;74.80;19.77;;;;;;;18.75;100.00;100371.16;5012287;28;20206;-66
2023/08/16 01:59:23;;;;;;;155.80;26.40;;;;;;;18.83;100.00;100368.75;5014450;28;20623;-66
2023/08/16 02:01:48;;;;;;;132.40;22.87;;;;;;;18.88;100.00;100368.34;4994371;28;20250;-67
2023/08/16 02:04:13;;;;;;;96.80;21.67;;;;;;;18.92;100.00;100363.75;5010022;28;20237;-64
2023/08/16 02:06:39;;;;;;;79.40;20.40;;;;;;;18.98;100.00;100363.22;5014659;28;20193;-67
2023/08/16 02:09:04;;;;;;;116.70;25.10;;;;;;;18.94;100.00;100369.63;5012718;28;20183;-67
2023/08/16 02:11:30;;;;;;;112.03;22.23;;;;;;;18.87;100.00;100374.53;5015147;28;20226;-66
2023/08/16 02:13:56;;;;;;;94.13;23.30;;;;;;;18.89;100.00;100375.22;5005159;28;20631;-66
2023/08/16 02:16:23;;;;;;;69.50;22.40;;;;;;;18.89;100.00;100370.00;5013419;28;20677;-66
2023/08/16 02:18:48;;;;;;;60.87;21.97;;;;;;;18.90;100.00;100368.22;5013938;28;20700;-66
2023/08/16 02:21:13;;;;;;;69.93;21.20;;;;;;;18.89;100.00;100362.19;5013302;28;20222;-66
2023/08/16 02:23:39;;;;;;;50.73;19.70;;;;;;;18.91;100.00;100359.47;5007057;28;20200;-66
2023/08/16 02:26:04;;;;;;;31.87;18.77;;;;;;;18.96;100.00;100357.28;5013565;28;20584;-66
2023/08/16 02:28:29;;;;;;;81.53;21.83;;;;;;;18.92;100.00;100351.53;5013611;28;20163;-66
2023/08/16 02:31:02;;;;;;;46.93;18.27;;;;;;;18.83;100.00;100360.91;5005841;28;20226;-65
2023/08/16 02:33:28;;;;;;;25.00;17.00;;;;;;;18.76;100.00;100357.19;5008850;28;20190;-65
2023/08/16 02:35:53;;;;;;;61.43;19.03;;;;;;;18.84;100.00;100353.91;5013268;28;20182;-67
2023/08/16 02:38:18;;;;;;;35.67;17.97;;;;;;;18.90;100.00;100347.38;5013452;28;20212;-67
2023/08/16 02:40:43;;;;;;;67.67;18.90;;;;;;;18.98;100.00;100334.53;5005347;28;20240;-66
2023/08/16 02:46:30;;;;;;;68.67;21.13;;;;;;;19.12;100.00;100341.16;5011355;28;20300;-66
2023/08/16 02:48:56;;;;;;;154.10;26.10;;;;;;;19.09;100.00;100336.19;5013388;28;20617;-66
2023/08/16 02:51:21;;;;;;;90.93;22.83;;;;;;;19.08;100.00;100335.38;5013735;28;20222;-67
2023/08/16 02:53:46;;;;;;;35.67;18.87;;;;;;;19.16;100.00;100330.34;5018487;28;20650;-67
2023/08/16 02:56:11;;;;;;;62.50;20.87;;;;;;;19.24;100.00;100331.41;5012921;28;20285;-67
2023/08/16 02:58:38;;;;;;;100.27;22.00;;;;;;;19.31;100.00;100327.31;5013484;28;20543;-67
2023/08/16 03:01:03;;;;;;;92.20;22.47;;;;;;;19.30;100.00;100330.88;4999222;28;20318;-66
2023/08/16 03:03:28;;;;;;;68.17;21.30;;;;;;;19.33;100.00;100330.63;5009194;28;20254;-66
2023/08/16 03:05:53;;;;;;;62.23;20.27;;;;;;;19.34;100.00;100340.09;5012052;28;20179;-67
2023/08/16 03:08:19;;;;;;;128.40;22.63;;;;;;;19.29;100.00;100334.47;5013086;28;20254;-67
2023/08/16 03:10:44;;;;;;;184.47;24.50;;;;;;;19.27;100.00;100337.19;5005782;28;20222;-66
2023/08/16 03:13:09;;;;;;;142.13;22.07;;;;;;;19.15;100.00;100330.44;5003826;28;20183;-66
2023/08/16 03:15:35;;;;;;;175.53;23.10;;;;;;;19.14;100.00;100339.25;5009148;28;20296;-66
2023/08/16 03:18:00;;;;;;;259.70;27.17;;;;;;;19.18;100.00;100338.00;5012560;28;20699;-66
2023/08/16 03:20:25;;;;;;;314.93;23.93;;;;;;;19.16;100.00;100343.38;5003560;28;20724;-66
2023/08/16 03:22:50;;;;;;;206.73;23.80;;;;;;;19.20;100.00;100341.28;5006445;28;20643;-66
2023/08/16 03:25:16;;;;;;;257.83;23.93;;;;;;;19.09;100.00;100344.84;5007736;28;20182;-66
2023/08/16 03:27:42;;;;;;;129.43;18.33;;;;;;;19.12;100.00;100341.97;5012565;28;20630;-66
2023/08/16 03:30:08;;;;;;;98.77;17.13;;;;;;;19.05;100.00;100346.06;4984961;28;20179;-66
2023/08/16 03:32:33;;;;;;;99.13;16.30;;;;;;;19.11;100.00;100345.53;5038730;28;20205;-67
2023/08/16 03:34:58;;;;;;;136.87;17.17;;;;;;;19.14;100.00;100350.50;5028258;28;20621;-66
2023/08/16 03:37:24;;;;;;;188.83;20.37;;;;;;;19.14;100.00;100353.09;5032521;28;20210;-66
2023/08/16 03:39:51;;;;;;;181.37;20.30;;;;;;;19.23;100.00;100354.09;5030774;28;20183;-66
2023/08/16 03:42:16;;;;;;;248.73;21.80;;;;;;;19.26;100.00;100356.41;5019111;28;20681;-65
2023/08/16 03:44:41;;;;;;;111.23;17.50;;;;;;;19.30;100.00;100362.19;5011869;28;20248;-66
2023/08/16 03:47:07;;;;;;;151.57;17.57;;;;;;;19.19;100.00;100361.34;5012536;28;20186;-66
2023/08/16 03:49:32;;;;;;;101.93;16.53;;;;;;;19.27;100.00;100360.66;5012070;28;20221;-66
2023/08/16 03:51:57;;;;;;;164.83;20.13;;;;;;;19.34;100.00;100361.78;5023695;28;20229;-67
2023/08/16 03:54:23;;;;;;;54.13;14.93;;;;;;;19.40;100.00;100364.81;5028137;28;20617;-67
2023/08/16 03:56:48;;;;;;;181.97;18.77;;;;;;;19.30;100.00;100356.97;5031937;28;20732;-67
2023/08/16 03:59:13;;;;;;;97.73;17.07;;;;;;;19.33;100.00;100362.75;5032156;28;20245;-67
2023/08/16 04:01:38;;;;;;;93.53;15.77;;;;;;;19.30;100.00;100357.81;5020882;28;20221;-67
2023/08/16 04:04:04;;;;;;;198.47;21.73;;;;;;;19.35;100.00;100360.03;5014482;28;20187;-67
2023/08/16 04:06:29;;;;;;;119.77;17.70;;;;;;;19.34;100.00;100350.53;5011161;28;20186;-67
2023/08/16 04:08:54;;;;;;;137.80;18.63;;;;;;;19.31;100.00;100354.25;5011886;28;20182;-65
2023/08/16 04:11:20;;;;;;;154.47;20.57;;;;;;;19.38;100.00;100359.75;5012113;28;20255;-66
2023/08/16 04:13:45;;;;;;;139.53;21.33;;;;;;;19.21;100.00;100365.59;5021378;28;21021;-66
2023/08/16 04:16:10;;;;;;;54.63;16.40;;;;;;;19.05;100.00;100353.06;5030933;28;20237;-66
2023/08/16 04:18:35;;;;;;;75.40;18.93;;;;;;;19.14;100.00;100354.91;5030966;28;20247;-67
2023/08/16 04:21:01;;;;;;;65.67;19.53;;;;;;;19.13;100.00;100355.84;5020825;28;20325;-66
2023/08/16 04:23:26;;;;;;;40.17;17.63;;;;;;;19.18;100.00;100351.06;5019688;28;20586;-66
2023/08/16 04:25:51;;;;;;;303.10;23.63;;;;;;;19.24;100.00;100350.53;5011203;28;20213;-67
2023/08/16 04:28:16;;;;;;;204.33;21.73;;;;;;;19.29;100.00;100353.53;5011831;28;20602;-66
2023/08/16 04:30:42;;;;;;;383.67;29.60;;;;;;;19.22;100.00;100357.63;5008956;28;20290;-67
2023/08/16 04:33:07;;;;;;;279.90;25.57;;;;;;;19.19;100.00;100361.34;5028980;28;20182;-67
2023/08/16 04:35:32;;;;;;;231.70;21.07;;;;;;;19.28;100.00;100377.16;5030920;28;20174;-67
2023/08/16 04:37:58;;;;;;;338.07;25.03;;;;;;;19.25;100.00;100386.06;5030935;28;20217;-66
2023/08/16 04:40:23;;;;;;;376.63;31.10;;;;;;;19.30;100.00;100402.16;5021328;28;20467;-66
2023/08/16 04:42:48;;;;;;;421.10;28.07;;;;;;;19.38;100.00;100395.44;5023787;28;20183;-67
2023/08/16 04:45:14;;;;;;;276.97;23.83;;;;;;;19.38;100.00;100396.25;5011258;28;20178;-67
2023/08/16 04:47:39;;;;;;;216.93;22.17;;;;;;;19.35;100.00;100393.94;5011067;28;20654;-67
2023/08/16 04:50:06;;;;;;;305.43;25.77;;;;;;;19.46;100.00;100396.41;5002025;28;20187;-66
2023/08/16 04:52:35;;;;;;;400.33;28.87;;;;;;;19.38;100.00;100396.25;5045941;28;20197;-66
2023/08/16 04:55:00;;;;;;;245.37;24.73;;;;;;;19.35;100.00;100399.16;5030949;28;20178;-66
2023/08/16 04:57:26;;;;;;;237.67;24.00;;;;;;;19.35;100.00;100397.34;5031134;28;20213;-66
2023/08/16 04:59:51;;;;;;;185.00;23.60;;;;;;;19.34;100.00;100400.91;5031076;28;20186;-68
2023/08/16 05:02:16;;;;;;;147.93;23.27;;;;;;;19.38;100.00;100396.25;5017801;28;20238;-67
2023/08/16 05:04:41;;;;;;;52.90;24.47;;;;;;;19.37;100.00;100391.19;5010857;28;20233;-67
2023/08/16 05:07:07;;;;;;;36.10;25.03;;;;;;;19.15;100.00;100388.66;5011361;28;20186;-67
2023/08/16 05:09:32;;;;;;;42.97;23.00;;;;;;;18.93;100.00;100389.66;5010306;28;20187;-67
2023/08/16 05:11:57;;;;;;;40.07;21.27;;;;;;;18.84;100.00;100388.63;5016604;28;20705;-67
2023/08/16 05:14:23;;;;;;;102.23;21.63;;;;;;;18.63;100.00;100387.84;5020275;28;20206;-67
2023/08/16 05:16:48;;;;;;;95.17;20.67;;;;;;;18.54;100.00;100389.44;5030726;28;20279;-67
2023/08/16 05:19:14;;;;;;;65.37;22.73;;;;;;;18.67;100.00;100394.47;5030942;28;20174;-67
2023/08/16 05:21:39;;;;;;;62.90;21.77;;;;;;;18.54;100.00;100389.44;5019857;28;20555;-67
2023/08/16 05:24:04;;;;;;;104.67;22.50;;;;;;;18.45;100.00;100393.63;5013911;28;20179;-68
2023/08/16 05:26:31;;;;;;;247.83;27.03;;;;;;;18.62;100.00;100399.19;5011034;28;20215;-67
2023/08/16 05:28:58;;;;;;;164.77;25.40;;;;;;;18.62;100.00;100405.25;5011545;28;20178;-67
2023/08/16 05:31:23;;;;;;;160.33;26.80;;;;;;;18.73;100.00;100399.16;5015729;28;20261;-67
2023/08/16 05:33:48;;;;;;;128.03;24.97;;;;;;;18.86;100.00;100409.34;5027643;28;20622;-66
2023/08/16 05:36:14;;;;;;;177.23;26.37;;;;;;;18.81;100.00;100408.91;5034164;28;20210;-66
2023/08/16 05:38:39;;;;;;;100.33;22.70;;;;;;;18.84;100.00;100411.25;5033413;28;20206;-61
2023/08/16 05:41:04;;;;;;;87.83;24.47;;;;;;;18.98;100.00;100410.13;5023443;28;20233;-62
2023/08/16 05:43:31;;;;;;;85.83;25.80;;;;;;;19.14;100.00;100402.63;5021863;28;20177;-61
2023/08/16 05:45:56;;;;;;;125.50;27.50;;;;;;;19.16;100.00;100395.53;5013888;28;20289;-62
2023/08/16 05:48:21;;;;;;;149.43;27.00;;;;;;;19.25;100.00;100391.28;5014239;28;20533;-62
2023/08/16 05:50:46;;;;;;;98.80;28.73;;;;;;;19.16;100.00;100395.53;5008991;28;20234;-62
2023/08/16 05:53:12;;;;;;;67.23;25.10;;;;;;;19.02;100.00;100383.66;5019164;28;20203;-62
2023/08/16 05:55:37;;;;;;;78.63;27.73;;;;;;;19.28;100.00;100384.97;5013679;28;20183;-62
2023/08/16 05:58:03;;;;;;;99.40;27.80;;;;;;;19.18;100.00;100385.75;5013104;28;20202;-62
2023/08/16 06:00:29;;;;;;;62.83;26.27;;;;;;;19.29;100.00;100391.84;5007307;28;20308;-62
2023/08/16 06:02:54;;;;;;;115.50;27.23;;;;;;;19.23;100.00;100390.59;5025817;28;20587;-62
2023/08/16 06:05:20;;;;;;;70.60;25.77;;;;;;;19.27;100.00;100386.75;5013752;28;20234;-62
2023/08/16 06:07:45;;;;;;;65.87;26.60;;;;;;;19.39;100.00;100384.03;5013886;28;20210;-62
2023/08/16 06:10:11;;;;;;;122.60;25.80;;;;;;;19.35;100.00;100375.66;5005198;28;20215;-63
2023/08/16 06:12:36;;;;;;;112.33;27.13;;;;;;;19.43;100.00;100377.59;5035850;28;20185;-62
2023/08/16 06:15:02;;;;;;;93.93;25.13;;;;;;;19.37;100.00;100376.34;5032947;28;20186;-62
2023/08/16 06:17:27;;;;;;;94.83;26.40;;;;;;;19.45;100.00;100376.50;5033349;28;20233;-62
2023/08/16 06:19:52;;;;;;;102.13;26.83;;;;;;;19.55;100.00;100388.72;5032964;28;20193;-63
2023/08/16 06:22:18;;;;;;;71.07;25.00;;;;;;;19.55;100.00;100384.34;5020710;28;20319;-60
2023/08/16 06:24:43;;;;;;;78.47;24.37;;;;;;;19.65;100.00;100381.75;5013790;28;20183;-66
2023/08/16 06:27:08;;;;;;;57.23;26.33;;;;;;;19.71;100.00;100380.38;5012902;28;20658;-67
2023/08/16 06:29:35;;;;;;;47.13;24.07;;;;;;;19.89;100.00;100385.78;5014082;28;20187;-67
2023/08/16 06:32:00;;;;;;;63.63;23.47;;;;;;;19.84;100.00;100389.59;5034491;28;20236;-65
2023/08/16 06:34:26;;;;;;;41.77;22.97;;;;;;;19.93;100.00;100392.38;5035505;28;20552;-66
2023/08/16 06:36:52;;;;;;;50.00;23.97;;;;;;;19.95;100.00;100393.88;5032718;28;20324;-65
2023/08/16 06:39:17;;;;;;;47.27;23.63;;;;;;;20.12;100.00;100391.56;5033444;28;20174;-66
2023/08/16 06:41:42;;;;;;;44.07;20.93;;;;;;;20.03;100.00;100393.19;5021965;28;20252;-66
2023/08/16 06:44:08;;;;;;;40.03;22.53;;;;;;;20.16;100.00;100388.50;5015040;28;20195;-66
2023/08/16 06:46:34;;;;;;;38.60;21.60;;;;;;;20.30;100.00;100391.66;5013201;28;20179;-65
2023/08/16 06:49:00;;;;;;;36.33;21.43;;;;;;;20.37;100.00;100394.53;5014116;28;21564;-62
2023/08/16 06:51:25;;;;;;;36.70;19.43;;;;;;;20.25;100.00;100399.09;5018870;28;20217;-64
2023/08/16 06:53:50;;;;;;;39.87;21.60;;;;;;;20.47;100.00;100398.75;5030595;28;20214;-65
2023/08/16 06:56:16;;;;;;;43.67;20.07;;;;;;;20.38;100.00;100401.38;5032808;28;20661;-64
2023/08/16 06:58:41;;;;;;;39.53;21.80;;;;;;;20.53;100.00;100410.44;5034205;28;20239;-64
2023/08/16 07:01:08;;;;;;;46.83;22.10;;;;;;;20.49;100.00;100416.91;5016191;28;20682;-64
2023/08/16 07:03:33;;;;;;;46.30;22.10;;;;;;;20.73;100.00;100429.53;5010065;28;20252;-66
2023/08/16 07:05:58;;;;;;;48.27;21.83;;;;;;;20.92;100.00;100430.44;5011447;28;20646;-66
2023/08/16 07:08:24;;;;;;;40.73;21.13;;;;;;;21.00;100.00;100435.81;5013320;28;20194;-66
2023/08/16 07:10:49;;;;;;;41.03;21.33;;;;;;;20.87;100.00;100422.22;5015770;28;20235;-66
2023/08/16 07:13:14;;;;;;;37.03;20.40;;;;;;;20.92;100.00;100433.06;5042290;28;20648;-66
2023/08/16 07:15:40;;;;;;;44.27;23.00;;;;;;;21.04;100.00;100428.50;5032303;28;20175;-66
2023/08/16 07:18:05;;;;;;;39.87;21.57;;;;;;;20.96;100.00;100440.50;5033339;28;20238;-64
2023/08/16 07:20:31;;;;;;;41.23;21.13;;;;;;;21.01;100.00;100447.06;5023415;28;20301;-64
2023/08/16 07:22:58;;;;;;;38.43;21.93;;;;;;;21.05;100.00;100435.34;5004823;28;20233;-64
2023/08/16 07:25:25;;;;;;;37.37;21.03;;;;;;;21.33;100.00;100419.69;4999410;28;20183;-64
2023/08/16 07:27:50;;;;;;;43.40;22.20;;;;;;;21.44;100.00;100422.09;5013378;28;20183;-65
2023/08/16 07:30:16;;;;;;;36.57;21.07;;;;;;;21.56;100.00;100430.59;4985402;28;20185;-66
2023/08/16 07:32:41;;;;;;;40.47;21.63;;;;;;;21.56;100.00;100428.78;5014993;28;20312;-65
2023/08/16 07:35:08;;;;;;;36.50;20.77;;;;;;;21.34;100.00;100434.41;5011314;28;20309;-65
2023/08/16 07:37:34;;;;;;;40.27;22.63;;;;;;;20.86;100.00;100428.41;5012759;28;20245;-65
2023/08/16 07:39:59;;;;;;;35.73;21.23;;;;;;;20.87;100.00;100427.44;5012540;28;20206;-67
2023/08/16 07:42:25;;;;;;;42.17;21.70;;;;;;;20.77;100.00;100427.47;5038533;28;20329;-67
2023/08/16 07:44:50;;;;;;;40.47;22.77;;;;;;;20.68;100.00;100430.91;5032110;28;20194;-66
2023/08/16 07:47:15;;;;;;;39.37;21.80;;;;;;;20.94;100.00;100420.69;5032878;28;20225;-66
2023/08/16 07:49:41;;;;;;;33.67;21.27;;;;;;;21.40;100.00;100425.97;5032670;28;20609;-68
2023/08/16 07:52:07;;;;;;;33.37;20.63;;;;;;;21.98;100.00;100426.56;5020656;28;20240;-67
2023/08/16 07:54:32;;;;;;;33.53;20.00;;;;;;;22.36;100.00;100421.97;5011495;28;20210;-66
2023/08/16 07:56:57;;;;;;;32.20;19.50;;;;;;;22.45;100.00;100430.72;5012572;28;20199;-65
2023/08/16 07:59:23;;;;;;;30.83;18.33;;;;;;;22.41;100.00;100432.84;4999123;28;20262;-66
2023/08/16 08:01:49;;;;;;;30.00;18.37;;;;;;;22.38;100.00;100438.41;5003855;28;20289;-64
2023/08/16 08:04:14;;;;;;;28.23;18.07;;;;;;;22.60;100.00;100444.09;5012521;28;20656;-64
2023/08/16 08:06:39;;;;;;;25.03;17.40;;;;;;;22.55;100.00;100452.41;5012588;28;20186;-65
2023/08/16 08:09:05;;;;;;;24.17;16.83;;;;;;;22.39;100.00;100447.91;5012160;28;20206;-65
2023/08/16 08:11:30;;;;;;;26.33;16.20;;;;;;;22.60;100.00;100459.84;5010345;28;20222;-64
2023/08/16 08:13:57;;;;;;;22.90;16.37;;;;;;;23.26;100.00;100449.72;5014662;28;21098;-65
2023/08/16 08:16:22;;;;;;;22.77;16.73;;;;;;;23.45;100.00;100454.72;5011619;28;20226;-66
2023/08/16 08:18:48;;;;;;;19.93;14.43;;;;;;;23.72;100.00;100454.63;5012219;28;20182;-66
2023/08/16 08:21:13;;;;;;;18.43;15.30;;;;;;;23.62;100.00;100445.06;5011206;28;20607;-65
2023/08/16 08:23:39;;;;;;;20.02;15.15;;;;;;;23.73;100.00;100437.88;5009482;28;20185;-65
2023/08/16 08:26:06;;;;;;;22.00;15.30;;;;;;;23.88;100.00;100445.94;5011415;28;20206;-65
2023/08/16 08:28:31;;;;;;;23.27;15.77;;;;;;;23.89;100.00;100450.19;5011623;28;20179;-65
2023/08/16 08:30:57;;;;;;;21.90;15.80;;;;;;;24.77;100.00;100457.47;5009749;28;20230;-65
2023/08/16 08:33:22;;;;;;;22.80;15.13;;;;;;;25.52;100.00;100449.31;5020412;28;20198;-65
2023/08/16 08:35:48;;;;;;;21.15;15.27;;;;;;;25.61;100.00;100440.34;5012117;28;20206;-66
2023/08/16 08:38:14;;;;;;;17.48;13.80;;;;;;;25.80;100.00;100440.88;5011779;28;20206;-67
2023/08/16 08:40:39;;;;;;;15.07;13.50;;;;;;;26.39;100.00;100429.72;5007044;28;20232;-66
2023/08/16 08:43:06;;;;;;;18.38;13.25;;;;;;;26.63;100.00;100436.56;5022506;28;20190;-67
2023/08/16 08:45:32;;;;;;;16.98;13.65;;;;;;;26.56;100.00;100436.47;5011637;28;20179;-66
2023/08/16 08:47:59;;;;;;;19.50;16.17;;;;;;;27.34;100.00;100429.97;5011756;28;20193;-66
2023/08/16 08:50:25;;;;;;;17.33;15.05;;;;;;;28.08;100.00;100428.91;5005119;28;20233;-66
2023/08/16 08:52:51;;;;;;;17.15;15.07;;;;;;;28.93;100.00;100428.06;5024614;28;20215;-65
2023/08/16 08:55:18;;;;;;;15.18;13.60;;;;;;;29.88;100.00;100430.75;5010886;28;20193;-66
2023/08/16 08:57:45;;;;;;;12.40;10.75;;;;;;;31.92;100.00;100436.03;5011523;28;20685;-66
2023/08/16 09:00:14;;;;;;;13.27;10.40;;;;;;;33.06;90.50;100445.53;5002485;28;20183;-66
2023/08/16 09:02:40;;;;;;;18.17;8.93;;;;;;;32.29;93.85;100439.63;5021252;28;20191;-66
2023/08/16 09:05:10;;;;;;;9.60;8.63;;;;;;;31.19;98.26;100436.25;5012662;28;20604;-66
2023/08/16 09:07:38;;;;;;;8.15;7.00;;;;;;;31.49;99.00;100440.19;5015531;28;20241;-65
2023/08/16 09:10:04;;;;;;;8.65;6.05;;;;;;;32.80;88.33;100440.31;5006924;28;20187;-66
2023/08/16 09:12:30;;;;;;;7.20;5.20;;;;;;;32.96;91.71;100444.22;5024284;28;20289;-66
2023/08/16 09:14:55;;;;;;;9.98;4.15;;;;;;;34.39;77.07;100449.94;5015171;28;20269;-66
2023/08/16 09:17:21;;;;;;;6.30;3.58;;;;;;;32.88;83.08;100447.19;5014949;28;20623;-65
2023/08/16 09:19:46;;;;;;;6.10;3.90;;;;;;;32.85;89.25;100452.16;5014986;28;20649;-67
2023/08/16 09:22:12;;;;;;;4.78;4.38;;;;;;;30.94;94.71;100456.59;5014081;28;20316;-67
2023/08/16 09:24:40;;;;;;;4.60;4.15;;;;;;;30.39;100.00;100453.22;5011174;28;20194;-66
2023/08/16 09:27:05;;;;;;;4.75;4.10;;;;;;;30.49;100.00;100450.16;5015971;28;20190;-66
2023/08/16 09:29:31;;;;;;;4.50;4.10;;;;;;;30.85;98.67;100448.00;5015859;28;20182;-66
2023/08/16 09:31:56;;;;;;;6.05;5.50;;;;;;;30.26;100.00;100439.94;5013770;28;20230;-67
2023/08/16 09:34:24;;;;;;;9.40;8.40;;;;;;;28.96;100.00;100432.94;5011940;28;20248;-65
2023/08/16 09:36:49;;;;;;;8.63;7.72;;;;;;;28.90;100.00;100420.47;5015522;28;20569;-67
2023/08/16 09:39:14;;;;;;;5.25;4.05;;;;;;;29.61;100.00;100422.78;5015466;28;20189;-67
2023/08/16 09:41:49;;;;;;;3.85;3.20;;;;;;;29.59;100.00;100422.16;5014826;28;20284;-68
2023/08/16 09:44:15;;;;;;;4.13;3.10;;;;;;;28.97;100.00;100411.53;5016741;28;20174;-65
2023/08/16 09:46:41;;;;;;;3.50;3.15;;;;;;;29.83;100.00;100411.97;5015441;28;20171;-65
2023/08/16 09:49:08;;;;;;;3.53;3.22;;;;;;;29.88;100.00;100417.50;5014903;28;20183;-65
2023/08/16 09:51:40;;;;;;;3.70;3.17;;;;;;;30.96;100.00;100425.28;5006507;28;20235;-65
2023/08/16 09:54:13;;;;;;;11.27;8.20;;;;;;;30.69;100.00;100430.72;5016744;28;20337;-65
2023/08/16 09:56:40;;;;;;;14.30;7.80;;;;;;;29.64;100.00;100421.53;5014816;28;20207;-65
2023/08/16 09:59:09;;;;;;;10.82;7.32;;;;;;;29.36;100.00;100419.88;5015056;28;20183;-65
2023/08/16 10:01:35;;;;;;;7.15;6.53;;;;;;;30.48;100.00;100408.69;5011872;28;20261;-65
2023/08/16 10:04:02;;;;;;;9.48;6.95;;;;;;;33.22;90.19;100410.28;5009385;28;20533;-66
2023/08/16 10:06:30;;;;;;;6.63;5.63;;;;;;;34.86;78.90;100398.28;5012675;28;20218;-66
2023/08/16 10:08:55;;;;;;;7.32;4.75;;;;;;;33.91;80.69;100401.91;5014464;28;20553;-68
2023/08/16 10:11:22;;;;;;;4.10;3.70;;;;;;;32.95;86.26;100399.97;5009931;28;20272;-66
2023/08/16 10:13:47;;;;;;;3.72;3.10;;;;;;;33.24;83.21;100402.84;5019037;28;20205;-67
2023/08/16 10:16:14;;;;;;;5.45;3.33;;;;;;;34.10;72.85;100399.09;5013062;28;20186;-67
2023/08/16 10:18:42;;;;;;;2.65;2.45;;;;;;;32.92;78.39;100400.44;5029224;28;20183;-67
2023/08/16 10:21:11;;;;;;;3.20;2.70;;;;;;;34.39;64.21;100396.53;5012340;28;20233;-67
2023/08/16 10:23:40;;;;;;;4.13;3.72;;;;;;;33.92;70.97;100397.34;5007944;28;20503;-67
2023/08/16 10:26:31;;;;;;;4.40;3.15;;;;;;;33.74;79.00;100400.91;5029101;28;20547;-66
2023/08/16 10:29:01;;;;;;;3.85;3.53;;;;;;;34.12;76.80;100386.31;5013822;28;20264;-67
2023/08/16 10:31:34;;;;;;;2.85;2.60;;;;;;;35.57;64.27;100394.47;5006498;28;20230;-67
2023/08/16 10:34:00;;;;;;;4.93;3.38;;;;;;;34.83;64.41;100396.06;5017650;28;20179;-66
2023/08/16 10:36:26;;;;;;;3.67;3.30;;;;;;;34.84;65.58;100395.03;5013804;28;20222;-64
2023/08/16 10:38:55;;;;;;;3.88;3.03;;;;;;;32.67;78.95;100398.66;5012667;28;20210;-68
2023/08/16 10:41:21;;;;;;;4.10;3.80;;;;;;;31.14;89.54;100406.03;5013782;28;20364;-69
2023/08/16 10:43:49;;;;;;;6.50;5.07;;;;;;;30.74;94.72;100391.88;5018425;28;20664;-66
2023/08/16 10:46:31;;;;;;;6.15;4.78;;;;;;;30.84;96.35;100393.28;5012242;28;20264;-66
2023/08/16 10:48:58;;;;;;;4.30;3.90;;;;;;;29.56;99.58;100397.88;5013714;28;20248;-67
2023/08/16 10:51:24;;;;;;;4.57;3.97;;;;;;;30.20;98.21;100385.88;5004541;28;20223;-67
2023/08/16 10:53:50;;;;;;;5.32;4.88;;;;;;;28.04;100.00;100380.06;5015910;28;20217;-66
2023/08/16 10:56:17;;;;;;;7.53;4.95;;;;;;;28.35;100.00;100378.84;5012653;28;20545;-67
2023/08/16 10:58:47;;;;;;;5.30;4.80;;;;;;;28.28;100.00;100372.69;5013166;28;20654;-66
2023/08/16 11:01:12;;;;;;;4.28;3.88;;;;;;;28.26;100.00;100377.38;5005840;28;20226;-66
2023/08/16 11:03:40;;;;;;;4.07;3.50;;;;;;;28.24;100.00;100372.25;5009725;28;20517;-65